Terminal Aerodrome Forecast
Issued by NWS

Home | Current Version | Previous Version | Text Only | Print | Product List | Glossary On
Versions: 1 2 3 4 5 6 7 8 9 10 11 12 13 14 15 16 17 18 19 20 21 22
000
FTAK31 PANC 040237 AAA
TAFACD
TAF AMD
PACD 040237Z 0403/0424 12007KT P6SM OVC050
      TEMPO 0403/0406 BKN025
     FM041600 14015G25KT P6SM -SHSN SCT015 BKN030=

USA.gov is the U.S. government's official web portal to all federal, state and local government web resources and services.